createdAt,value
2018-08-04T00:00:26.715Z,13.60
2018-08-04T00:02:54.933Z,13.38
2018-08-04T00:05:23.145Z,14.15
2018-08-04T00:07:51.292Z,13.85
2018-08-04T00:10:21.267Z,13.60
2018-08-04T00:12:51.502Z,13.10
2018-08-04T00:15:20.222Z,13.68
2018-08-04T00:17:49.076Z,13.68
2018-08-04T00:20:17.475Z,13.30
2018-08-04T00:22:46.129Z,13.93
2018-08-04T00:25:14.460Z,13.22
2018-08-04T00:27:42.646Z,13.13
2018-08-04T00:30:13.234Z,14.10
2018-08-04T00:32:42.124Z,14.75
2018-08-04T00:35:11.126Z,13.58
2018-08-04T00:37:39.700Z,13.18
2018-08-04T00:40:10.027Z,13.58
2018-08-04T00:42:38.343Z,14.15
2018-08-04T00:45:06.852Z,13.43
2018-08-04T00:47:35.278Z,13.80
2018-08-04T00:50:03.804Z,14.55
2018-08-04T00:52:31.940Z,13.32
2018-08-04T00:55:00.267Z,13.32
2018-08-04T00:57:28.846Z,13.98
2018-08-04T00:59:57.371Z,14.13
2018-08-04T01:02:25.901Z,14.63
2018-08-04T01:04:54.146Z,14.33
2018-08-04T01:07:22.552Z,14.30
2018-08-04T01:09:50.724Z,13.98
2018-08-04T01:12:18.850Z,14.10
2018-08-04T01:14:47.135Z,13.60
2018-08-04T01:17:15.452Z,13.40
2018-08-04T01:19:43.610Z,12.35
2018-08-04T01:22:11.743Z,12.93
2018-08-04T01:24:40.180Z,12.73
2018-08-04T01:27:08.498Z,12.30
2018-08-04T01:29:36.766Z,12.68
2018-08-04T01:32:04.992Z,13.48
2018-08-04T01:34:33.666Z,13.18
2018-08-04T01:37:01.875Z,14.18
2018-08-04T01:39:30.347Z,13.72
2018-08-04T01:41:58.795Z,14.53
2018-08-04T01:44:27.053Z,13.28
2018-08-04T01:46:55.271Z,13.78
2018-08-04T01:49:23.490Z,15.32
2018-08-04T01:51:51.621Z,14.40
2018-08-04T01:54:19.999Z,14.07
2018-08-04T01:56:48.307Z,13.53
2018-08-04T01:59:16.598Z,13.90
2018-08-04T02:01:45.002Z,13.30
2018-08-04T02:04:13.283Z,15.90
2018-08-04T02:06:41.664Z,15.18
2018-08-04T02:09:11.164Z,14.33
2018-08-04T02:11:39.446Z,14.05
2018-08-04T02:14:07.602Z,13.13
2018-08-04T02:16:35.970Z,14.60
2018-08-04T02:19:04.156Z,15.25
2018-08-04T02:21:32.534Z,14.98
2018-08-04T02:24:00.886Z,14.95
2018-08-04T02:26:29.124Z,14.23
2018-08-04T02:28:57.296Z,14.93
2018-08-04T02:31:25.663Z,14.43
2018-08-04T02:33:53.976Z,14.20
2018-08-04T02:36:22.119Z,14.43
2018-08-04T02:38:50.378Z,13.90
2018-08-04T02:41:18.654Z,15.00
2018-08-04T02:43:46.818Z,13.95
2018-08-04T02:46:15.163Z,14.38
2018-08-04T02:48:43.519Z,14.78
2018-08-04T02:51:11.653Z,13.68
2018-08-04T02:53:39.971Z,13.18
2018-08-04T02:56:08.185Z,14.15
2018-08-04T02:58:36.356Z,13.25
2018-08-04T03:01:04.526Z,14.60
2018-08-04T03:03:32.862Z,14.15
2018-08-04T03:06:01.026Z,13.95
2018-08-04T03:08:29.443Z,16.05
2018-08-04T03:10:57.589Z,14.45
2018-08-04T03:13:25.932Z,14.53
2018-08-04T03:15:54.143Z,15.38
2018-08-04T03:18:22.552Z,14.40
2018-08-04T03:20:50.775Z,15.45
2018-08-04T03:23:18.973Z,15.23
2018-08-04T03:25:47.301Z,15.98
2018-08-04T03:28:15.647Z,14.85
2018-08-04T03:30:44.163Z,15.65
2018-08-04T03:33:12.290Z,16.12
2018-08-04T03:35:40.652Z,16.20
2018-08-04T03:38:08.815Z,15.55
2018-08-04T03:40:37.152Z,15.10
2018-08-04T03:43:05.302Z,16.27
2018-08-04T03:45:33.567Z,15.55
2018-08-04T03:48:01.715Z,16.27
2018-08-04T03:50:29.958Z,16.67
2018-08-04T03:52:58.091Z,15.68
2018-08-04T03:55:26.365Z,16.48
2018-08-04T03:57:54.719Z,15.32
2018-08-04T04:00:22.963Z,16.57
2018-08-04T04:02:51.227Z,16.35
2018-08-04T04:05:20.495Z,16.42
2018-08-04T04:07:48.911Z,16.77
2018-08-04T04:10:17.076Z,16.90
2018-08-04T04:12:45.653Z,17.02
2018-08-04T04:15:13.819Z,16.30
2018-08-04T04:17:45.867Z,16.95
2018-08-04T04:20:14.306Z,15.72
2018-08-04T04:22:42.566Z,16.52
2018-08-04T04:25:10.896Z,16.05
2018-08-04T04:27:39.048Z,16.87
2018-08-04T04:30:07.480Z,16.30
2018-08-04T04:32:35.684Z,16.02
2018-08-04T04:35:04.587Z,16.30
2018-08-04T04:37:32.903Z,16.55
2018-08-04T04:40:01.428Z,16.32
2018-08-04T04:42:29.654Z,15.60
2018-08-04T04:44:57.899Z,16.32
2018-08-04T04:47:26.207Z,16.57
2018-08-04T04:49:54.348Z,15.80
2018-08-04T04:52:23.084Z,16.50
2018-08-04T04:54:51.820Z,15.53
2018-08-04T04:57:20.244Z,15.95
2018-08-04T04:59:48.535Z,17.02
2018-08-04T05:02:16.733Z,16.67
2018-08-04T05:04:44.932Z,16.05
2018-08-04T05:07:13.119Z,15.95
2018-08-04T05:09:41.237Z,15.43
2018-08-04T05:12:09.657Z,15.80
2018-08-04T05:14:37.828Z,15.38
2018-08-04T05:17:06.009Z,15.28
2018-08-04T05:19:34.242Z,15.50
2018-08-04T05:22:02.659Z,16.10
2018-08-04T05:24:31.054Z,15.63
2018-08-04T05:26:59.331Z,16.55
2018-08-04T05:29:27.450Z,16.52
2018-08-04T05:31:55.698Z,16.30
2018-08-04T05:34:23.971Z,16.42
2018-08-04T05:36:52.216Z,16.90
2018-08-04T05:39:20.516Z,17.05
2018-08-04T05:41:48.739Z,17.92
2018-08-04T05:44:17.361Z,18.70
2018-08-04T05:46:45.587Z,19.00
2018-08-04T05:49:14.080Z,18.55
2018-08-04T05:51:42.248Z,17.40
2018-08-04T05:54:10.427Z,18.42
2018-08-04T05:56:38.706Z,20.32
2018-08-04T05:59:08.611Z,19.73
2018-08-04T06:01:36.754Z,20.45
2018-08-04T06:04:05.136Z,20.85
2018-08-04T06:06:33.340Z,21.20
2018-08-04T06:09:01.715Z,22.30
2018-08-04T06:11:30.064Z,20.35
2018-08-04T06:13:58.404Z,20.75
2018-08-04T06:16:26.708Z,20.65
2018-08-04T06:18:55.609Z,21.62
2018-08-04T06:21:23.739Z,20.90
2018-08-04T06:23:51.902Z,20.40
2018-08-04T06:26:20.250Z,20.95
2018-08-04T06:28:48.512Z,20.72
2018-08-04T06:31:16.844Z,20.25
2018-08-04T06:33:45.299Z,20.12
2018-08-04T06:36:13.774Z,20.62
2018-08-04T06:38:42.042Z,21.05
2018-08-04T06:41:10.509Z,20.48
2018-08-04T06:43:38.803Z,20.52
2018-08-04T06:46:07.196Z,20.25
2018-08-04T06:48:35.692Z,20.70
2018-08-04T06:51:04.051Z,20.25
2018-08-04T06:53:32.396Z,20.55
2018-08-04T06:56:01.092Z,19.77
2018-08-04T06:58:29.480Z,18.75
2018-08-04T07:00:57.699Z,20.62
2018-08-04T07:03:25.957Z,21.37
2018-08-04T07:05:54.495Z,19.82
2018-08-04T07:08:22.890Z,19.92
2018-08-04T07:10:51.141Z,19.42
2018-08-04T07:13:19.702Z,19.60
2018-08-04T07:15:48.203Z,20.10
2018-08-04T07:18:16.287Z,19.07
2018-08-04T07:20:44.701Z,19.50
2018-08-04T07:23:12.919Z,21.80
2018-08-04T07:25:41.397Z,20.20
2018-08-04T07:28:09.835Z,22.02
2018-08-04T07:30:38.054Z,20.72
2018-08-04T07:33:07.346Z,19.95
2018-08-04T07:35:35.810Z,18.92
2018-08-04T07:38:04.042Z,19.70
2018-08-04T07:40:32.378Z,20.05
2018-08-04T07:43:00.732Z,20.80
2018-08-04T07:45:29.204Z,19.32
2018-08-04T07:47:57.407Z,19.07
2018-08-04T07:50:25.892Z,18.02
2018-08-04T07:52:54.060Z,17.85
2018-08-04T07:55:22.483Z,17.42
2018-08-04T07:57:50.814Z,17.60
2018-08-04T08:00:18.944Z,18.55
2018-08-04T08:02:47.141Z,18.67
2018-08-04T08:05:15.372Z,18.50
2018-08-04T08:07:43.482Z,18.15
2018-08-04T08:10:11.740Z,18.73
2018-08-04T08:12:39.871Z,18.15
2018-08-04T08:15:08.795Z,17.55
2018-08-04T08:17:37.174Z,17.87
2018-08-04T08:20:05.420Z,18.00
2018-08-04T08:22:37.332Z,18.55
2018-08-04T08:25:06.090Z,18.07
2018-08-04T08:27:34.287Z,19.07
2018-08-04T08:30:02.546Z,18.87
2018-08-04T08:32:31.086Z,19.17
2018-08-04T08:34:59.717Z,19.32
2018-08-04T08:37:27.943Z,19.15
2018-08-04T08:39:56.763Z,18.95
2018-08-04T08:42:25.228Z,18.23
2018-08-04T08:44:53.741Z,20.32
2018-08-04T08:47:21.930Z,19.25
2018-08-04T08:49:50.107Z,21.60
2018-08-04T08:52:18.314Z,20.12
2018-08-04T08:54:46.610Z,19.10
2018-08-04T08:57:14.914Z,19.25
2018-08-04T08:59:43.080Z,19.87
2018-08-04T09:02:11.326Z,19.12
2018-08-04T09:04:39.456Z,18.92
2018-08-04T09:07:07.595Z,18.60
2018-08-04T09:09:35.938Z,18.77
2018-08-04T09:12:04.022Z,19.10
2018-08-04T09:14:32.148Z,18.23
2018-08-04T09:17:00.536Z,17.98
2018-08-04T09:19:28.751Z,17.48
2018-08-04T09:21:57.207Z,17.37
2018-08-04T09:24:26.022Z,18.32
2018-08-04T09:26:54.296Z,18.20
2018-08-04T09:29:22.808Z,18.50
2018-08-04T09:31:51.611Z,18.40
2018-08-04T09:34:19.974Z,18.73
2018-08-04T09:36:48.130Z,18.95
2018-08-04T09:39:16.362Z,21.12
2018-08-04T09:41:44.668Z,19.87
2018-08-04T09:44:12.864Z,19.57
2018-08-04T09:46:41.694Z,18.42
2018-08-04T09:49:09.797Z,20.48
2018-08-04T09:51:38.335Z,21.65
2018-08-04T09:54:06.443Z,23.70
2018-08-04T09:56:34.733Z,22.25
2018-08-04T09:59:02.962Z,21.70
2018-08-04T10:01:38.184Z,23.95
2018-08-04T10:04:06.938Z,23.70
2018-08-04T10:06:35.192Z,23.98
2018-08-04T10:09:04.816Z,23.75
2018-08-04T10:11:33.024Z,24.15
2018-08-04T10:14:01.283Z,24.82
2018-08-04T10:16:29.424Z,24.57
2018-08-04T10:18:57.607Z,24.63
2018-08-04T10:21:25.996Z,23.70
2018-08-04T10:23:54.299Z,23.30
2018-08-04T10:26:22.536Z,22.37
2018-08-04T10:28:50.635Z,24.20
2018-08-04T10:31:18.783Z,22.52
2018-08-04T10:33:47.044Z,22.25
2018-08-04T10:36:15.199Z,23.35
2018-08-04T10:38:43.465Z,23.35
2018-08-04T10:41:12.236Z,22.55
2018-08-04T10:43:40.380Z,23.50
2018-08-04T10:46:08.552Z,23.80
2018-08-04T10:48:36.676Z,22.58
2018-08-04T10:51:05.026Z,22.32
2018-08-04T10:53:33.262Z,21.20
2018-08-04T10:56:01.590Z,20.40
2018-08-04T10:58:29.791Z,21.52
2018-08-04T11:00:57.906Z,21.90
2018-08-04T11:03:26.184Z,21.33
2018-08-04T11:05:56.615Z,21.40
2018-08-04T11:08:25.067Z,21.90
2018-08-04T11:10:53.857Z,20.92
2018-08-04T11:13:22.010Z,21.50
2018-08-04T11:15:50.244Z,21.12
2018-08-04T11:18:18.428Z,19.32
2018-08-04T11:20:47.061Z,19.05
2018-08-04T11:23:15.818Z,20.70
2018-08-04T11:25:44.031Z,19.50
2018-08-04T11:28:12.508Z,19.35
2018-08-04T11:30:41.143Z,18.62
2018-08-04T11:33:09.352Z,19.30
2018-08-04T11:35:37.651Z,18.67
2018-08-04T11:38:06.037Z,18.70
2018-08-04T11:40:34.190Z,18.23
2018-08-04T11:43:02.390Z,18.02
2018-08-04T11:45:31.362Z,18.12
2018-08-04T11:47:59.442Z,17.12
2018-08-04T11:50:27.783Z,16.90
2018-08-04T11:52:55.923Z,16.67
2018-08-04T11:55:24.256Z,17.27
2018-08-04T11:57:52.370Z,16.12
2018-08-04T12:00:20.572Z,15.65
2018-08-04T12:02:49.039Z,15.63
2018-08-04T12:05:17.403Z,15.32
2018-08-04T12:07:45.707Z,16.00
2018-08-04T12:10:13.856Z,15.35
2018-08-04T12:12:42.195Z,14.80
2018-08-04T12:15:10.377Z,13.35
2018-08-04T12:17:38.516Z,14.55
2018-08-04T12:20:06.807Z,14.15
2018-08-04T12:22:35.359Z,13.38
2018-08-04T12:25:03.631Z,14.10
2018-08-04T12:27:31.898Z,12.78
2018-08-04T12:30:00.171Z,13.98
2018-08-04T12:32:28.274Z,13.70
2018-08-04T12:34:56.948Z,13.50
2018-08-04T12:37:25.236Z,13.08
2018-08-04T12:39:53.752Z,13.90
2018-08-04T12:42:21.847Z,13.55
2018-08-04T12:44:50.088Z,13.18
2018-08-04T12:47:18.223Z,13.98
2018-08-04T12:49:47.512Z,13.88
2018-08-04T12:52:15.767Z,13.80
2018-08-04T12:54:44.210Z,13.08
2018-08-04T12:57:12.415Z,12.68
2018-08-04T12:59:40.627Z,13.50
2018-08-04T13:02:08.854Z,12.25
2018-08-04T13:04:38.159Z,13.08
2018-08-04T13:07:06.552Z,13.80
2018-08-04T13:09:34.690Z,13.98
2018-08-04T13:12:03.004Z,13.08
2018-08-04T13:14:31.080Z,14.25
2018-08-04T13:16:59.539Z,13.93
2018-08-04T13:19:28.055Z,14.93
2018-08-04T13:21:56.426Z,13.70
2018-08-04T13:24:24.608Z,14.78
2018-08-04T13:26:53.059Z,14.83
2018-08-04T13:29:21.845Z,15.68
2018-08-04T13:31:50.041Z,16.37
2018-08-04T13:34:18.551Z,14.35
2018-08-04T13:36:47.513Z,14.33
2018-08-04T13:39:15.792Z,15.68
2018-08-04T13:41:44.057Z,15.10
2018-08-04T13:44:12.653Z,15.28
2018-08-04T13:46:41.243Z,14.28
2018-08-04T13:49:10.003Z,14.07
2018-08-04T13:51:38.733Z,15.03
2018-08-04T13:54:07.688Z,13.85
2018-08-04T13:56:35.948Z,16.10
2018-08-04T13:59:04.192Z,15.83
2018-08-04T14:01:32.957Z,14.47
2018-08-04T14:04:01.190Z,16.82
2018-08-04T14:06:29.813Z,14.68
2018-08-04T14:08:57.946Z,14.43
2018-08-04T14:11:26.469Z,13.55
2018-08-04T14:13:56.529Z,14.87
2018-08-04T14:16:26.002Z,13.68
2018-08-04T14:18:54.436Z,13.32
2018-08-04T14:21:22.783Z,15.30
2018-08-04T14:23:51.350Z,23.40
2018-08-04T14:26:19.707Z,25.05
2018-08-04T14:28:47.976Z,24.63
2018-08-04T14:31:16.177Z,25.23
2018-08-04T14:33:44.651Z,23.47
2018-08-04T14:36:13.418Z,22.45
2018-08-04T14:38:41.527Z,22.62
2018-08-04T14:41:10.147Z,23.32
2018-08-04T14:43:38.890Z,22.15
2018-08-04T14:46:07.754Z,20.92
2018-08-04T14:48:36.225Z,19.87
2018-08-04T14:51:04.632Z,20.48
2018-08-04T14:53:32.899Z,21.15
2018-08-04T14:56:01.543Z,19.70
2018-08-04T14:58:29.867Z,18.65
2018-08-04T15:00:58.171Z,19.10
2018-08-04T15:03:26.674Z,18.00
2018-08-04T15:05:54.908Z,19.00
2018-08-04T15:08:23.110Z,16.40
2018-08-04T15:10:51.367Z,15.30
2018-08-04T15:13:19.655Z,16.27
2018-08-04T15:15:48.324Z,15.50
2018-08-04T15:18:16.793Z,16.07
2018-08-04T15:20:45.144Z,15.63
2018-08-04T15:23:13.872Z,15.30
2018-08-04T15:25:42.384Z,14.38
2018-08-04T15:28:10.909Z,15.08
2018-08-04T15:30:40.321Z,14.33
2018-08-04T15:33:08.916Z,14.23
2018-08-04T15:35:37.738Z,14.70
2018-08-04T15:38:05.944Z,12.88
2018-08-04T15:40:34.203Z,16.65
2018-08-04T15:43:13.604Z,14.50
2018-08-04T15:45:47.156Z,16.48
2018-08-04T15:48:17.341Z,16.07
2018-08-04T15:50:48.099Z,18.42
2018-08-04T15:53:18.331Z,21.75
2018-08-04T15:55:46.893Z,23.00
2018-08-04T16:01:16.138Z,27.00
2018-08-04T16:03:45.260Z,27.10
2018-08-04T16:06:15.873Z,25.65
2018-08-04T16:08:47.362Z,24.18
2018-08-04T16:11:40.071Z,22.55
2018-08-04T16:14:22.780Z,22.37
2018-08-04T16:16:51.707Z,21.00
2018-08-04T16:19:21.452Z,21.12
2018-08-04T16:21:49.627Z,21.97
2018-08-04T16:24:17.926Z,21.27
2018-08-04T16:26:51.799Z,21.40
2018-08-04T16:29:20.191Z,21.20
2018-08-04T16:31:48.700Z,19.25
2018-08-04T16:34:16.901Z,18.75
2018-08-04T16:36:45.408Z,18.27
2018-08-04T16:39:13.927Z,18.42
2018-08-04T16:41:42.280Z,17.60
2018-08-04T16:44:10.753Z,19.65
2018-08-04T16:46:39.108Z,22.02
2018-08-04T16:49:07.355Z,25.20
2018-08-04T16:51:37.412Z,27.27
2018-08-04T16:54:06.124Z,30.80
2018-08-04T16:56:34.727Z,34.55
2018-08-04T16:59:02.959Z,35.03
2018-08-04T17:01:31.291Z,35.15
2018-08-04T17:03:59.581Z,33.95
2018-08-04T17:06:27.843Z,34.43
2018-08-04T17:08:56.391Z,34.73
2018-08-04T17:11:24.603Z,34.80
2018-08-04T17:13:53.164Z,34.13
2018-08-04T17:16:22.190Z,31.37
2018-08-04T17:18:50.405Z,30.02
2018-08-04T17:21:19.087Z,29.55
2018-08-04T17:23:47.369Z,27.00
2018-08-04T17:26:15.640Z,25.00
2018-08-04T17:28:44.101Z,25.48
2018-08-04T17:31:12.349Z,24.05
2018-08-04T17:33:40.691Z,23.27
2018-08-04T17:36:08.860Z,22.02
2018-08-04T17:38:37.149Z,22.42
2018-08-04T17:41:05.562Z,21.23
2018-08-04T17:43:34.528Z,21.42
2018-08-04T17:46:02.811Z,21.05
2018-08-04T17:48:31.269Z,19.80
2018-08-04T17:50:59.467Z,19.60
2018-08-04T17:53:28.472Z,19.98
2018-08-04T17:55:57.020Z,19.92
2018-08-04T17:58:25.687Z,19.70
2018-08-04T18:00:53.921Z,18.50
2018-08-04T18:03:22.152Z,17.55
2018-08-04T18:05:50.844Z,17.32
2018-08-04T18:08:19.230Z,17.42
2018-08-04T18:10:48.131Z,17.40
2018-08-04T18:13:17.763Z,16.75
2018-08-04T18:15:45.951Z,17.60
2018-08-04T18:18:15.576Z,16.27
2018-08-04T18:20:45.663Z,15.88
2018-08-04T18:23:13.828Z,15.28
2018-08-04T18:25:42.437Z,16.10
2018-08-04T18:28:11.245Z,14.87
2018-08-04T18:30:39.424Z,16.52
2018-08-04T18:33:08.079Z,15.63
2018-08-04T18:35:36.280Z,16.45
2018-08-04T18:38:04.834Z,16.82
2018-08-04T18:40:33.107Z,15.75
2018-08-04T18:43:01.213Z,15.78
2018-08-04T18:45:29.426Z,14.73
2018-08-04T18:47:58.046Z,14.58
2018-08-04T18:50:26.486Z,14.25
2018-08-04T18:52:54.863Z,13.83
2018-08-04T18:55:23.184Z,14.10
2018-08-04T18:57:52.096Z,13.93
2018-08-04T19:00:22.176Z,13.88
2018-08-04T19:02:50.739Z,14.03
2018-08-04T19:05:19.107Z,11.78
2018-08-04T19:07:47.545Z,12.50
2018-08-04T19:10:15.940Z,11.93
2018-08-04T19:12:44.165Z,11.38
2018-08-04T19:15:12.738Z,11.22
2018-08-04T19:17:40.970Z,11.48
2018-08-04T19:20:09.237Z,12.40
2018-08-04T19:22:37.621Z,13.45
2018-08-04T19:25:06.591Z,12.70
2018-08-04T19:27:34.867Z,12.90
2018-08-04T19:30:03.682Z,12.47
2018-08-04T19:32:32.199Z,13.18
2018-08-04T19:35:00.673Z,14.78
2018-08-04T19:37:28.913Z,15.45
2018-08-04T19:39:57.322Z,13.78
2018-08-04T19:42:26.341Z,14.03
2018-08-04T19:44:54.766Z,12.50
2018-08-04T19:47:23.083Z,14.13
2018-08-04T19:49:52.526Z,13.75
2018-08-04T19:52:20.901Z,14.53
2018-08-04T19:54:50.178Z,13.93
2018-08-04T19:57:18.697Z,14.15
2018-08-04T19:59:47.127Z,15.13
2018-08-04T20:02:15.697Z,13.53
2018-08-04T20:04:45.786Z,14.70
2018-08-04T20:07:21.432Z,15.08
2018-08-04T20:09:50.444Z,13.58
2018-08-04T20:12:18.754Z,14.18
2018-08-04T20:14:47.022Z,14.78
2018-08-04T20:17:15.713Z,14.93
2018-08-04T20:19:43.907Z,14.58
2018-08-04T20:22:13.980Z,15.28
2018-08-04T20:24:42.396Z,16.17
2018-08-04T20:27:10.600Z,18.60
2018-08-04T20:29:38.786Z,18.82
2018-08-04T20:32:07.516Z,18.10
2018-08-04T20:34:36.403Z,17.05
2018-08-04T20:37:04.732Z,17.45
2018-08-04T20:39:33.151Z,16.93
2018-08-04T20:42:01.610Z,15.18
2018-08-04T20:44:30.150Z,14.20
2018-08-04T20:46:58.388Z,14.18
2018-08-04T20:49:26.660Z,13.98
2018-08-04T20:51:55.162Z,14.05
2018-08-04T20:54:23.324Z,13.48
2018-08-04T20:56:51.768Z,13.93
2018-08-04T20:59:19.914Z,14.18
2018-08-04T21:01:56.855Z,13.72
2018-08-04T21:04:25.122Z,13.93
2018-08-04T21:06:53.419Z,13.68
2018-08-04T21:09:22.303Z,13.93
2018-08-04T21:11:52.656Z,12.93
2018-08-04T21:14:22.141Z,13.38
2018-08-04T21:16:51.143Z,14.00
2018-08-04T21:19:20.641Z,13.75
2018-08-04T21:21:48.946Z,13.55
2018-08-04T21:24:18.198Z,14.28
2018-08-04T21:26:46.529Z,14.73
2018-08-04T21:29:14.944Z,14.43
2018-08-04T21:31:43.231Z,14.07
2018-08-04T21:34:12.201Z,15.25
2018-08-04T21:36:40.595Z,18.62
2018-08-04T21:39:11.584Z,17.73
2018-08-04T21:41:39.827Z,16.17
2018-08-04T21:44:07.986Z,15.40
2018-08-04T21:46:41.288Z,15.15
2018-08-04T21:49:09.775Z,16.50
2018-08-04T21:51:38.232Z,16.02
2018-08-04T21:54:06.330Z,16.48
2018-08-04T21:56:34.527Z,16.90
2018-08-04T21:59:02.775Z,18.55
2018-08-04T22:01:31.317Z,18.40
2018-08-04T22:03:59.575Z,17.85
2018-08-04T22:06:54.895Z,17.07
2018-08-04T22:09:24.708Z,19.02
2018-08-04T22:11:52.880Z,18.55
2018-08-04T22:14:21.478Z,18.37
2018-08-04T22:16:49.696Z,19.00
2018-08-04T22:19:18.046Z,18.70
2018-08-04T22:21:46.240Z,18.48
2018-08-04T22:24:14.524Z,18.10
2018-08-04T22:26:42.694Z,17.98
2018-08-04T22:29:10.972Z,17.55
2018-08-04T22:31:39.316Z,16.67
2018-08-04T22:34:07.872Z,17.37
2018-08-04T22:36:36.070Z,16.05
2018-08-04T22:39:05.425Z,15.53
2018-08-04T22:41:33.821Z,16.48
2018-08-04T22:44:01.955Z,15.68
2018-08-04T22:46:30.298Z,17.17
2018-08-04T22:48:58.477Z,14.83
2018-08-04T22:51:28.151Z,15.60
2018-08-04T22:53:57.403Z,14.98
2018-08-04T22:56:26.039Z,15.85
2018-08-04T22:58:54.506Z,15.13
2018-08-04T23:01:29.380Z,14.73
2018-08-04T23:03:57.926Z,13.72
2018-08-04T23:06:26.072Z,14.43
2018-08-04T23:08:54.283Z,14.05
2018-08-04T23:11:22.813Z,13.68
2018-08-04T23:13:51.635Z,13.78
2018-08-04T23:16:20.311Z,13.95
2018-08-04T23:18:48.870Z,14.13
2018-08-04T23:21:17.358Z,14.15
2018-08-04T23:23:45.929Z,14.33
2018-08-04T23:26:15.195Z,14.05
2018-08-04T23:28:43.708Z,14.23
2018-08-04T23:31:12.859Z,13.62
2018-08-04T23:33:41.407Z,13.98
2018-08-04T23:36:09.691Z,13.95
2018-08-04T23:38:37.963Z,14.43
2018-08-04T23:41:06.419Z,15.08
2018-08-04T23:43:34.635Z,18.42
2018-08-04T23:46:02.860Z,15.95
2018-08-04T23:48:31.145Z,14.98
2018-08-04T23:51:00.164Z,14.93
2018-08-04T23:53:28.428Z,14.95
2018-08-04T23:55:57.253Z,14.33
2018-08-04T23:58:25.659Z,13.78
